createdAt,value
2018-08-24T19:09:14.000Z,48
2018-08-24T19:09:31.000Z,48
2018-08-24T19:10:31.000Z,48
2018-08-24T19:11:30.000Z,48
2018-08-24T19:12:30.000Z,48
2018-08-24T19:13:30.000Z,49
2018-08-24T19:14:31.000Z,49
2018-08-24T19:15:30.000Z,49
2018-08-24T19:16:30.000Z,49
2018-08-24T19:17:30.000Z,49
2018-08-24T19:18:30.000Z,49
2018-08-24T19:19:30.000Z,49
2018-08-24T19:20:30.000Z,49
2018-08-24T19:21:31.000Z,49
2018-08-24T19:22:31.000Z,49
2018-08-24T19:23:30.000Z,49
2018-08-24T19:24:30.000Z,50
2018-08-24T19:25:30.000Z,50
2018-08-24T19:26:30.000Z,50
2018-08-24T19:27:30.000Z,50
2018-08-24T19:28:30.000Z,51
2018-08-24T19:29:30.000Z,51
2018-08-24T19:30:29.000Z,50
2018-08-24T19:31:30.000Z,46
2018-08-24T19:32:29.000Z,47
2018-08-24T19:33:30.000Z,50
2018-08-24T19:34:31.000Z,50
2018-08-24T19:35:30.000Z,50
2018-08-24T19:36:30.000Z,50
2018-08-24T19:37:31.000Z,48
2018-08-24T19:38:31.000Z,48
2018-08-24T19:39:31.000Z,47
2018-08-24T19:40:31.000Z,46
2018-08-24T19:41:30.000Z,45
2018-08-24T19:42:31.000Z,45
2018-08-24T19:43:31.000Z,47
2018-08-24T19:44:29.000Z,48
2018-08-24T19:45:31.000Z,48
2018-08-24T19:46:30.000Z,49
2018-08-24T19:47:30.000Z,49
2018-08-24T19:48:30.000Z,49
2018-08-24T19:49:30.000Z,49
2018-08-24T19:50:30.000Z,49
2018-08-24T19:51:31.000Z,49
2018-08-24T19:52:30.000Z,50
2018-08-24T19:53:29.000Z,50
2018-08-24T19:54:30.000Z,49
2018-08-24T19:55:30.000Z,49
2018-08-24T19:56:31.000Z,50
2018-08-24T19:57:30.000Z,50
2018-08-24T19:58:30.000Z,50
2018-08-24T19:59:30.000Z,50
2018-08-24T20:00:31.000Z,50
2018-08-24T20:01:30.000Z,50
2018-08-24T20:02:30.000Z,50
2018-08-24T20:03:30.000Z,50
2018-08-24T20:04:30.000Z,50
2018-08-24T20:05:31.000Z,50
2018-08-24T20:06:31.000Z,50
2018-08-24T20:07:30.000Z,51
2018-08-24T20:08:31.000Z,51
2018-08-24T20:09:30.000Z,50
2018-08-24T20:10:30.000Z,50
2018-08-24T20:11:31.000Z,50
2018-08-24T20:12:30.000Z,50
2018-08-24T20:15:31.000Z,51
2018-08-24T20:16:30.000Z,51
2018-08-24T20:17:30.000Z,42
2018-08-24T20:18:30.000Z,49
2018-08-24T20:19:31.000Z,53
2018-08-24T20:20:31.000Z,53
2018-08-24T20:24:32.000Z,52
2018-08-24T20:25:31.000Z,52
2018-08-24T20:26:30.000Z,52
2018-08-24T20:27:31.000Z,51
2018-08-24T20:38:30.000Z,53
2018-08-24T20:39:32.000Z,52
2018-08-24T20:40:31.000Z,52
2018-08-24T20:41:30.000Z,52
2018-08-24T20:46:30.000Z,52
2018-08-24T20:47:30.000Z,52
2018-08-24T20:48:30.000Z,52
2018-08-24T20:49:30.000Z,52
2018-08-24T20:50:30.000Z,52
2018-08-24T20:51:31.000Z,52
2018-08-24T20:52:29.000Z,52
2018-08-24T20:53:30.000Z,52
2018-08-24T20:56:31.000Z,52
2018-08-24T20:57:30.000Z,52
2018-08-24T20:58:31.000Z,52
2018-08-24T21:01:30.000Z,52
2018-08-24T21:02:31.000Z,52
2018-08-24T21:04:31.000Z,52
2018-08-24T21:05:31.000Z,52
2018-08-24T21:06:30.000Z,52
2018-08-24T21:09:32.000Z,52
2018-08-24T21:10:30.000Z,53
2018-08-24T21:11:31.000Z,53
2018-08-24T21:12:30.000Z,52
2018-08-24T21:13:30.000Z,52
2018-08-24T21:14:30.000Z,53
2018-08-24T21:15:31.000Z,53
2018-08-24T21:17:30.000Z,53
2018-08-24T21:20:30.000Z,53
2018-08-24T21:21:30.000Z,52
2018-08-24T21:22:31.000Z,52
2018-08-24T21:23:30.000Z,53
2018-08-24T21:24:30.000Z,53
2018-08-24T21:25:30.000Z,53
2018-08-24T21:26:31.000Z,43
2018-08-24T21:27:30.000Z,51
2018-08-24T21:28:31.000Z,56
2018-08-24T21:29:31.000Z,58
2018-08-24T21:30:31.000Z,60
2018-08-24T21:31:31.000Z,65
2018-08-24T21:32:31.000Z,60
2018-08-24T21:33:31.000Z,60
2018-08-24T21:34:31.000Z,65
2018-08-24T21:35:31.000Z,60
2018-08-24T21:36:31.000Z,60
2018-08-24T21:37:31.000Z,60
2018-08-24T21:38:31.000Z,61
2018-08-24T21:39:31.000Z,61
2018-08-24T21:40:31.000Z,61
2018-08-24T21:41:31.000Z,61
2018-08-24T21:42:32.000Z,60
2018-08-24T21:43:31.000Z,60
2018-08-24T21:44:31.000Z,60
2018-08-24T21:45:31.000Z,61
2018-08-24T21:46:31.000Z,60
2018-08-24T21:47:31.000Z,61
2018-08-24T21:48:31.000Z,61
2018-08-24T21:49:31.000Z,60
2018-08-24T21:50:32.000Z,61
2018-08-24T21:51:31.000Z,60
2018-08-24T21:52:31.000Z,61
2018-08-24T21:53:31.000Z,65
2018-08-24T21:54:31.000Z,60
2018-08-24T21:55:31.000Z,64
2018-08-24T21:56:31.000Z,64
2018-08-24T21:57:31.000Z,60
2018-08-24T21:58:31.000Z,60
2018-08-24T22:00:31.000Z,60
2018-08-24T22:01:31.000Z,59
2018-08-24T22:02:31.000Z,59
2018-08-24T22:03:30.000Z,60
2018-08-24T22:04:31.000Z,60
2018-08-24T22:05:31.000Z,60
2018-08-24T22:06:30.000Z,65
2018-08-24T22:07:31.000Z,65
2018-08-24T22:08:32.000Z,65
